createdAt,value
2018-04-02T00:00:19.165Z,73.77
2018-04-02T00:01:19.586Z,74.43
2018-04-02T00:02:20.003Z,74.05
2018-04-02T00:03:20.426Z,74.90
2018-04-02T00:04:20.846Z,75.00
2018-04-02T00:05:21.266Z,74.33
2018-04-02T00:06:21.686Z,74.43
2018-04-02T00:07:22.101Z,74.52
2018-04-02T00:08:22.532Z,73.96
2018-04-02T00:09:22.948Z,73.39
2018-04-02T00:10:23.365Z,73.58
2018-04-02T00:11:23.780Z,73.49
2018-04-02T00:12:24.202Z,72.82
2018-04-02T00:13:24.623Z,72.92
2018-04-02T00:14:25.034Z,71.97
2018-04-02T00:15:25.467Z,71.69
2018-04-02T00:16:25.920Z,71.69
2018-04-02T00:17:26.298Z,72.34
2018-04-02T00:18:26.716Z,72.06
2018-04-02T00:19:27.135Z,71.97
2018-04-02T00:20:27.572Z,72.25
2018-04-02T00:21:27.976Z,71.40
2018-04-02T00:22:28.391Z,71.59
2018-04-02T00:23:28.819Z,72.16
2018-04-02T00:24:29.236Z,72.73
2018-04-02T00:25:29.652Z,72.73
2018-04-02T00:26:30.070Z,73.58
2018-04-02T00:27:30.493Z,72.73
2018-04-02T00:28:30.910Z,72.53
2018-04-02T00:29:31.332Z,71.21
2018-04-02T00:30:31.748Z,71.12
2018-04-02T00:31:32.173Z,70.36
2018-04-02T00:32:32.589Z,69.89
2018-04-02T00:33:33.007Z,69.60
2018-04-02T00:34:33.426Z,69.13
2018-04-02T00:35:33.843Z,68.84
2018-04-02T00:36:34.271Z,68.84
2018-04-02T00:37:34.690Z,68.18
2018-04-02T00:38:35.108Z,69.41
2018-04-02T00:39:35.527Z,68.75
2018-04-02T00:40:35.943Z,67.90
2018-04-02T00:41:36.362Z,67.05
2018-04-02T00:42:36.779Z,67.33
2018-04-02T00:43:37.256Z,66.95
2018-04-02T00:44:37.623Z,65.72
2018-04-02T00:45:38.043Z,65.69
2018-04-02T00:46:38.456Z,65.88
2018-04-02T00:47:38.876Z,66.00
2018-04-02T00:48:39.291Z,65.88
2018-04-02T00:49:39.723Z,64.83
2018-04-02T00:50:40.131Z,64.83
2018-04-02T00:51:40.551Z,65.02
2018-04-02T00:52:40.967Z,65.21
2018-04-02T00:53:41.390Z,65.40
2018-04-02T00:54:41.813Z,65.02
2018-04-02T00:55:42.225Z,65.69
2018-04-02T00:56:42.649Z,65.88
2018-04-02T00:57:43.062Z,65.88
2018-04-02T00:58:43.499Z,67.20
2018-04-02T00:59:43.913Z,66.92
2018-04-02T01:00:44.323Z,68.05
2018-04-02T01:01:44.747Z,68.33
2018-04-02T01:02:45.164Z,68.43
2018-04-02T01:03:45.583Z,68.90
2018-04-02T01:04:45.997Z,68.81
2018-04-02T01:05:46.421Z,69.47
2018-04-02T01:06:46.835Z,69.95
2018-04-02T01:07:47.256Z,70.23
2018-04-02T01:08:47.679Z,70.79
2018-04-02T01:09:48.102Z,71.36
2018-04-02T01:10:48.523Z,71.31
2018-04-02T01:11:48.933Z,72.34
2018-04-02T01:12:49.350Z,71.97
2018-04-02T01:13:49.773Z,72.44
2018-04-02T01:14:50.189Z,72.53
2018-04-02T01:15:50.611Z,72.73
2018-04-02T01:16:51.027Z,72.92
2018-04-02T01:17:51.447Z,72.25
2018-04-02T01:18:51.864Z,72.25
2018-04-02T01:19:52.283Z,73.20
2018-04-02T01:20:52.705Z,72.73
2018-04-02T01:21:53.126Z,72.82
2018-04-02T01:22:53.540Z,72.53
2018-04-02T01:23:53.971Z,73.39
2018-04-02T01:24:54.387Z,73.77
2018-04-02T01:25:54.803Z,74.24
2018-04-02T01:26:55.220Z,74.05
2018-04-02T01:27:55.636Z,74.24
2018-04-02T01:28:56.053Z,75.00
2018-04-02T01:29:56.475Z,74.71
2018-04-02T01:30:56.890Z,74.62
2018-04-02T01:31:57.320Z,74.77
2018-04-02T01:32:57.733Z,74.15
2018-04-02T01:33:58.156Z,75.19
2018-04-02T01:34:58.585Z,75.47
2018-04-02T01:35:58.992Z,74.68
2018-04-02T01:36:59.412Z,75.47
2018-04-02T01:37:59.831Z,75.95
2018-04-02T01:39:00.249Z,75.85
2018-04-02T01:40:00.668Z,75.95
2018-04-02T01:41:01.096Z,75.91
2018-04-02T01:42:01.507Z,76.42
2018-04-02T01:43:01.928Z,76.86
2018-04-02T01:44:02.343Z,76.38
2018-04-02T01:45:02.765Z,77.75
2018-04-02T01:46:03.190Z,77.89
2018-04-02T01:47:03.605Z,77.80
2018-04-02T01:48:04.018Z,78.41
2018-04-02T01:49:04.445Z,78.37
2018-04-02T01:50:04.913Z,78.13
2018-04-02T01:51:05.277Z,78.85
2018-04-02T01:52:05.695Z,79.13
2018-04-02T01:53:06.117Z,79.32
2018-04-02T01:54:06.534Z,79.22
2018-04-02T01:55:06.961Z,78.56
2018-04-02T01:56:07.376Z,78.27
2018-04-02T01:57:07.794Z,78.56
2018-04-02T01:58:08.216Z,78.18
2018-04-02T01:59:08.630Z,78.37
2018-04-02T02:00:09.050Z,78.27
2018-04-02T02:01:09.475Z,77.99
2018-04-02T02:02:09.885Z,77.89
2018-04-02T02:03:10.314Z,77.42
2018-04-02T02:04:10.725Z,77.51
2018-04-02T02:05:11.144Z,77.61
2018-04-02T02:06:11.564Z,77.42
2018-04-02T02:07:11.981Z,77.61
2018-04-02T02:08:12.439Z,76.86
2018-04-02T02:09:12.831Z,77.80
2018-04-02T02:10:13.247Z,77.61
2018-04-02T02:11:13.661Z,77.14
2018-04-02T02:12:14.077Z,77.42
2018-04-02T02:13:14.502Z,77.51
2018-04-02T02:14:14.916Z,77.89
2018-04-02T02:15:15.339Z,76.67
2018-04-02T02:16:15.754Z,77.04
2018-04-02T02:17:16.194Z,76.57
2018-04-02T02:18:16.593Z,76.67
2018-04-02T02:19:17.011Z,77.04
2018-04-02T02:20:17.432Z,77.80
2018-04-02T02:21:17.862Z,77.42
2018-04-02T02:22:18.270Z,78.08
2018-04-02T02:23:18.691Z,77.99
2018-04-02T02:24:19.107Z,77.80
2018-04-02T02:25:19.525Z,76.86
2018-04-02T02:26:19.951Z,76.48
2018-04-02T02:27:20.365Z,76.67
2018-04-02T02:28:20.784Z,76.67
2018-04-02T02:29:21.208Z,76.48
2018-04-02T02:30:21.630Z,76.67
2018-04-02T02:31:22.043Z,76.67
2018-04-02T02:32:22.463Z,77.04
2018-04-02T02:33:22.881Z,76.48
2018-04-02T02:34:23.302Z,76.86
2018-04-02T02:35:23.714Z,75.91
2018-04-02T02:36:24.141Z,76.86
2018-04-02T02:37:24.554Z,77.23
2018-04-02T02:38:24.974Z,76.67
2018-04-02T02:39:25.456Z,76.76
2018-04-02T02:40:25.813Z,76.38
2018-04-02T02:41:26.230Z,76.48
2018-04-02T02:42:26.652Z,76.29
2018-04-02T02:43:27.069Z,76.57
2018-04-02T02:44:27.484Z,76.38
2018-04-02T02:45:27.904Z,76.48
2018-04-02T02:46:28.329Z,76.67
2018-04-02T02:47:28.748Z,76.57
2018-04-02T02:48:29.166Z,76.57
2018-04-02T02:49:29.585Z,75.91
2018-04-02T02:50:29.999Z,75.34
2018-04-02T02:51:30.419Z,74.96
2018-04-02T02:52:30.837Z,75.15
2018-04-02T02:53:31.260Z,75.72
2018-04-02T02:54:31.691Z,76.38
2018-04-02T02:55:32.102Z,75.91
2018-04-02T02:56:32.513Z,75.15
2018-04-02T02:57:32.932Z,74.96
2018-04-02T02:58:33.354Z,74.49
2018-04-02T02:59:33.771Z,74.49
2018-04-02T03:00:34.187Z,74.40
2018-04-02T03:01:34.607Z,73.64
2018-04-02T03:02:35.030Z,73.54
2018-04-02T03:03:35.447Z,73.16
2018-04-02T03:04:35.864Z,73.16
2018-04-02T03:05:36.287Z,73.73
2018-04-02T03:06:36.703Z,74.11
2018-04-02T03:07:37.120Z,74.30
2018-04-02T03:08:37.540Z,74.40
2018-04-02T03:09:37.959Z,74.30
2018-04-02T03:10:38.386Z,74.87
2018-04-02T03:11:38.802Z,75.43
2018-04-02T03:12:39.220Z,74.77
2018-04-02T03:13:39.641Z,74.30
2018-04-02T03:14:40.065Z,74.49
2018-04-02T03:15:40.471Z,74.58
2018-04-02T03:16:40.891Z,74.21
2018-04-02T03:17:41.315Z,74.49
2018-04-02T03:18:41.731Z,74.58
2018-04-02T03:19:42.149Z,75.15
2018-04-02T03:20:42.571Z,74.58
2018-04-02T03:21:42.987Z,75.24
2018-04-02T03:22:43.405Z,75.43
2018-04-02T03:23:43.825Z,75.34
2018-04-02T03:24:44.256Z,75.24
2018-04-02T03:25:44.663Z,74.40
2018-04-02T03:26:45.084Z,73.83
2018-04-02T03:27:45.500Z,74.30
2018-04-02T03:28:45.919Z,74.87
2018-04-02T03:29:46.343Z,74.49
2018-04-02T03:30:46.759Z,74.45
2018-04-02T03:31:47.175Z,74.40
2018-04-02T03:32:47.592Z,74.07
2018-04-02T03:33:48.016Z,74.40
2018-04-02T03:34:48.457Z,73.60
2018-04-02T03:35:48.859Z,73.92
2018-04-02T03:36:49.277Z,74.26
2018-04-02T03:37:49.689Z,73.79
2018-04-02T03:38:50.107Z,73.50
2018-04-02T03:39:50.524Z,72.75
2018-04-02T03:40:50.944Z,72.94
2018-04-02T03:41:51.363Z,72.47
2018-04-02T03:42:51.783Z,72.75
2018-04-02T03:43:52.205Z,72.66
2018-04-02T03:44:52.617Z,72.37
2018-04-02T03:45:53.040Z,71.61
2018-04-02T03:46:53.452Z,71.42
2018-04-02T03:47:53.878Z,71.33
2018-04-02T03:48:54.305Z,70.95
2018-04-02T03:49:54.717Z,71.42
2018-04-02T03:50:55.132Z,71.23
2018-04-02T03:51:55.554Z,70.48
2018-04-02T03:52:55.972Z,70.39
2018-04-02T03:53:56.386Z,70.86
2018-04-02T03:54:56.806Z,70.95
2018-04-02T03:55:57.221Z,70.95
2018-04-02T03:56:57.648Z,70.39
2018-04-02T03:57:58.060Z,71.14
2018-04-02T03:58:58.479Z,70.01
2018-04-02T03:59:58.899Z,70.10
2018-04-02T04:00:59.322Z,69.25
2018-04-02T04:01:59.738Z,68.96
2018-04-02T04:03:00.159Z,69.06
2018-04-02T04:04:00.579Z,69.06
2018-04-02T04:05:00.988Z,68.59
2018-04-02T04:06:01.410Z,68.40
2018-04-02T04:07:01.838Z,68.21
2018-04-02T04:08:02.245Z,68.12
2018-04-02T04:09:02.660Z,67.93
2018-04-02T04:10:03.085Z,67.64
2018-04-02T04:11:03.501Z,67.36
2018-04-02T04:12:03.919Z,67.74
2018-04-02T04:13:04.336Z,67.36
2018-04-02T04:14:04.758Z,67.55
2018-04-02T04:15:05.173Z,66.69
2018-04-02T04:16:05.597Z,66.79
2018-04-02T04:17:06.019Z,67.17
2018-04-02T04:18:06.437Z,67.17
2018-04-02T04:19:06.848Z,67.17
2018-04-02T04:20:07.271Z,66.79
2018-04-02T04:21:07.689Z,66.31
2018-04-02T04:22:08.105Z,66.31
2018-04-02T04:23:08.520Z,65.75
2018-04-02T04:24:08.946Z,65.28
2018-04-02T04:25:09.353Z,65.37
2018-04-02T04:26:09.790Z,65.09
2018-04-02T04:27:10.201Z,65.18
2018-04-02T04:28:10.616Z,64.71
2018-04-02T04:29:11.033Z,65.18
2018-04-02T04:30:11.451Z,65.75
2018-04-02T04:31:11.868Z,66.13
2018-04-02T04:32:12.292Z,66.41
2018-04-02T04:33:12.706Z,67.17
2018-04-02T04:34:13.125Z,67.26
2018-04-02T04:35:13.541Z,66.22
2018-04-02T04:36:13.964Z,65.84
2018-04-02T04:37:14.380Z,65.18
2018-04-02T04:38:14.799Z,65.37
2018-04-02T04:39:15.220Z,65.75
2018-04-02T04:40:15.671Z,66.50
2018-04-02T04:41:16.083Z,67.26
2018-04-02T04:42:16.473Z,67.55
2018-04-02T04:43:16.890Z,66.03
2018-04-02T04:44:17.361Z,66.22
2018-04-02T04:45:17.739Z,65.66
2018-04-02T04:46:18.153Z,65.75
2018-04-02T04:47:18.567Z,66.22
2018-04-02T04:48:18.991Z,65.75
2018-04-02T04:49:19.405Z,64.80
2018-04-02T04:50:19.834Z,65.18
2018-04-02T04:51:20.242Z,64.61
2018-04-02T04:52:20.660Z,65.09
2018-04-02T04:53:21.079Z,65.56
2018-04-02T04:54:21.499Z,65.66
2018-04-02T04:55:21.915Z,66.41
2018-04-02T04:56:22.337Z,66.22
2018-04-02T04:57:22.754Z,65.94
2018-04-02T04:58:23.173Z,66.13
2018-04-02T04:59:23.643Z,66.60
2018-04-02T05:00:24.006Z,66.31
2018-04-02T05:01:24.429Z,65.66
2018-04-02T05:02:24.850Z,65.56
2018-04-02T05:03:25.265Z,65.56
2018-04-02T05:04:25.687Z,66.13
2018-04-02T05:05:26.105Z,67.07
2018-04-02T05:06:26.522Z,66.92
2018-04-02T05:07:26.943Z,67.64
2018-04-02T05:08:27.359Z,67.58
2018-04-02T05:09:27.778Z,68.15
2018-04-02T05:10:28.202Z,68.43
2018-04-02T05:11:28.617Z,69.72
2018-04-02T05:12:29.034Z,69.28
2018-04-02T05:13:29.455Z,69.06
2018-04-02T05:14:29.875Z,68.71
2018-04-02T05:15:30.291Z,69.00
2018-04-02T05:16:30.722Z,69.76
2018-04-02T05:17:31.132Z,70.42
2018-04-02T05:18:31.549Z,71.08
2018-04-02T05:19:31.967Z,71.08
2018-04-02T05:20:32.389Z,71.36
2018-04-02T05:21:32.806Z,71.55
2018-04-02T05:22:33.227Z,71.27
2018-04-02T05:23:33.644Z,70.70
2018-04-02T05:24:34.062Z,69.57
2018-04-02T05:25:34.508Z,69.38
2018-04-02T05:26:34.901Z,70.32
2018-04-02T05:27:35.321Z,70.79
2018-04-02T05:28:35.743Z,72.50
2018-04-02T05:29:36.161Z,73.35
2018-04-02T05:30:36.580Z,73.73
2018-04-02T05:31:36.996Z,74.40
2018-04-02T05:32:37.417Z,74.68
2018-04-02T05:33:37.834Z,72.69
2018-04-02T05:34:38.258Z,71.84
2018-04-02T05:35:38.675Z,72.31
2018-04-02T05:36:39.087Z,72.41
2018-04-02T05:37:39.509Z,72.69
2018-04-02T05:38:39.936Z,72.22
2018-04-02T05:39:40.351Z,70.89
2018-04-02T05:40:40.770Z,70.39
2018-04-02T05:41:41.191Z,69.95
2018-04-02T05:42:41.601Z,69.76
2018-04-02T05:43:42.030Z,70.89
2018-04-02T05:44:42.446Z,70.61
2018-04-02T05:45:42.864Z,69.66
2018-04-02T05:46:43.286Z,70.51
2018-04-02T05:47:43.702Z,70.98
2018-04-02T05:48:44.124Z,72.12
2018-04-02T05:49:44.542Z,72.41
2018-04-02T05:50:44.963Z,73.64
2018-04-02T05:51:45.384Z,74.11
2018-04-02T05:52:45.803Z,74.02
2018-04-02T05:53:46.220Z,73.35
2018-04-02T05:54:46.641Z,72.12
2018-04-02T05:55:47.058Z,72.03
2018-04-02T05:56:47.476Z,72.69
2018-04-02T05:57:47.895Z,72.97
2018-04-02T05:58:48.318Z,71.84
2018-04-02T05:59:48.736Z,70.98
2018-04-02T06:00:49.154Z,70.61
2018-04-02T06:01:49.576Z,70.98
2018-04-02T06:02:49.995Z,71.74
2018-04-02T06:03:50.413Z,72.31
2018-04-02T06:04:50.833Z,71.74
2018-04-02T06:05:51.250Z,72.60
2018-04-02T06:06:51.683Z,72.22
2018-04-02T06:07:52.094Z,71.65
2018-04-02T06:08:52.535Z,72.60
2018-04-02T06:09:52.933Z,72.50
2018-04-02T06:10:53.354Z,72.78
2018-04-02T06:11:53.769Z,74.68
2018-04-02T06:12:54.197Z,72.69
2018-04-02T06:13:54.621Z,72.03
2018-04-02T06:14:55.034Z,72.41
2018-04-02T06:15:55.450Z,72.31
2018-04-02T06:16:55.882Z,71.93
2018-04-02T06:17:56.287Z,71.08
2018-04-02T06:18:56.712Z,72.50
2018-04-02T06:19:57.129Z,74.11
2018-04-02T06:20:57.548Z,74.30
2018-04-02T06:21:57.967Z,73.54
2018-04-02T06:22:58.392Z,73.45
2018-04-02T06:23:58.813Z,74.43
2018-04-02T06:24:59.232Z,76.61
2018-04-02T06:25:59.655Z,78.03
2018-04-02T06:27:00.070Z,79.36
2018-04-02T06:28:00.497Z,80.30
2018-04-02T06:29:00.908Z,81.15
2018-04-02T06:30:01.328Z,82.29
2018-04-02T06:31:01.747Z,83.05
2018-04-02T06:32:02.169Z,82.39
2018-04-02T06:33:02.593Z,82.76
2018-04-02T06:34:03.003Z,83.33
2018-04-02T06:35:03.428Z,83.90
2018-04-02T06:36:03.847Z,84.14
2018-04-02T06:37:04.341Z,82.67
2018-04-02T06:38:04.689Z,82.95
2018-04-02T06:39:05.113Z,83.90
2018-04-02T06:40:05.530Z,85.51
2018-04-02T06:41:05.949Z,82.82
2018-04-02T06:42:06.369Z,80.55
2018-04-02T06:43:06.790Z,81.15
2018-04-02T06:44:07.210Z,82.01
2018-04-02T06:45:07.642Z,82.76
2018-04-02T06:46:08.051Z,83.81
2018-04-02T06:47:08.468Z,84.38
2018-04-02T06:48:08.893Z,85.42
2018-04-02T06:49:09.307Z,87.31
2018-04-02T06:50:09.732Z,88.17
2018-04-02T06:51:10.153Z,88.64
2018-04-02T06:52:10.574Z,88.26
2018-04-02T06:53:10.995Z,86.83
2018-04-02T06:54:11.411Z,85.89
2018-04-02T06:55:11.833Z,87.40
2018-04-02T06:56:12.257Z,87.02
2018-04-02T06:57:12.673Z,86.46
2018-04-02T06:58:13.108Z,86.74
2018-04-02T06:59:13.521Z,86.08
2018-04-02T07:00:13.940Z,85.61
2018-04-02T07:01:14.354Z,86.74
2018-04-02T07:02:14.779Z,85.70
2018-04-02T07:03:15.203Z,85.99
2018-04-02T07:04:15.622Z,86.83
2018-04-02T07:05:16.039Z,87.98
2018-04-02T07:06:16.466Z,88.82
2018-04-02T07:07:16.884Z,89.58
2018-04-02T07:08:17.303Z,90.44
2018-04-02T07:09:17.730Z,90.81
2018-04-02T07:10:18.142Z,89.39
2018-04-02T07:11:18.568Z,90.39
2018-04-02T07:12:18.991Z,91.71
2018-04-02T07:13:19.421Z,91.24
2018-04-02T07:14:19.828Z,92.00
2018-04-02T07:15:20.248Z,92.28
2018-04-02T07:16:20.672Z,93.23
2018-04-02T07:17:21.776Z,93.32
2018-04-02T07:18:21.514Z,93.13
2018-04-02T07:19:21.940Z,93.42
2018-04-02T07:20:22.363Z,93.70
2018-04-02T07:21:22.783Z,94.18
2018-04-02T07:22:23.204Z,94.27
2018-04-02T07:23:23.624Z,94.84
2018-04-02T07:24:24.041Z,94.56
2018-04-02T07:25:24.464Z,94.74
2018-04-02T07:26:24.881Z,94.93
2018-04-02T07:27:25.305Z,94.13
2018-04-02T07:28:25.726Z,93.80
2018-04-02T07:29:26.191Z,93.61
2018-04-02T07:30:26.565Z,94.04
2018-04-02T07:31:26.988Z,93.84
2018-04-02T07:32:27.420Z,92.94
2018-04-02T07:33:27.838Z,94.27
2018-04-02T07:34:28.264Z,94.18
2018-04-02T07:35:28.679Z,93.89
2018-04-02T07:36:29.098Z,94.27
2018-04-02T07:37:29.518Z,93.32
2018-04-02T07:38:29.944Z,94.08
2018-04-02T07:39:30.364Z,93.51
2018-04-02T07:40:30.791Z,93.99
2018-04-02T07:41:31.209Z,94.27
2018-04-02T07:42:31.635Z,94.18
2018-04-02T07:43:32.059Z,94.18
2018-04-02T07:44:32.480Z,94.08
2018-04-02T07:45:32.893Z,94.27
2018-04-02T07:46:33.316Z,94.74
2018-04-02T07:47:33.737Z,94.46
2018-04-02T07:48:34.174Z,94.37
2018-04-02T07:49:34.581Z,93.99
2018-04-02T07:50:35.016Z,93.89
2018-04-02T07:51:35.430Z,94.74
2018-04-02T07:52:35.848Z,93.51
2018-04-02T07:53:36.276Z,94.18
2018-04-02T07:54:36.694Z,94.93
2018-04-02T07:55:37.118Z,95.12
2018-04-02T07:56:37.541Z,94.56
2018-04-02T07:57:37.979Z,95.22
2018-04-02T07:58:38.415Z,95.03
2018-04-02T07:59:38.815Z,95.74
2018-04-02T08:00:39.242Z,95.65
2018-04-02T08:01:39.664Z,95.84
2018-04-02T08:02:40.133Z,96.03
2018-04-02T08:03:40.515Z,96.08
2018-04-02T08:04:40.937Z,98.21
2018-04-02T08:05:41.377Z,97.17
2018-04-02T08:06:41.790Z,97.78
2018-04-02T08:07:42.228Z,97.83
2018-04-02T08:08:42.671Z,97.50
2018-04-02T08:09:43.090Z,97.31
2018-04-02T08:10:43.531Z,96.31
2018-04-02T08:11:43.980Z,96.08
2018-04-02T08:12:44.392Z,94.51
2018-04-02T08:13:44.825Z,93.79
2018-04-02T08:14:45.234Z,94.08
2018-04-02T08:15:45.659Z,92.27
2018-04-02T08:16:46.099Z,92.41
2018-04-02T08:17:46.503Z,93.27
2018-04-02T08:18:46.929Z,96.69
2018-04-02T08:19:47.382Z,98.12
2018-04-02T08:20:47.816Z,98.26
2018-04-02T08:21:48.250Z,99.87
2018-04-02T08:22:48.660Z,98.31
2018-04-02T08:23:49.089Z,97.55
2018-04-02T08:24:49.496Z,94.70
2018-04-02T08:25:49.928Z,91.55
2018-04-02T08:26:50.379Z,86.65
2018-04-02T08:27:50.801Z,81.68
2018-04-02T08:28:51.241Z,81.35
2018-04-02T08:29:51.671Z,78.49
2018-04-02T08:30:52.097Z,79.27
2018-04-02T08:31:52.536Z,80.83
2018-04-02T08:32:52.968Z,80.11
2018-04-02T08:33:53.413Z,78.58
2018-04-02T08:34:53.840Z,77.70
2018-04-02T08:35:54.973Z,84.17
2018-04-02T08:36:54.711Z,85.51
2018-04-02T08:37:55.156Z,84.41
2018-04-02T08:38:55.648Z,81.35
2018-04-02T08:39:56.018Z,78.96
2018-04-02T08:40:56.460Z,79.44
2018-04-02T08:41:56.890Z,78.10
2018-04-02T08:42:57.308Z,77.59
2018-04-02T08:43:57.752Z,79.51
2018-04-02T08:44:58.155Z,82.87
2018-04-02T08:45:58.625Z,79.78
2018-04-02T08:46:59.018Z,83.23
2018-04-02T08:47:59.467Z,85.55
2018-04-02T08:48:59.885Z,82.97
2018-04-02T08:50:00.321Z,78.43
2018-04-02T08:51:00.755Z,75.72
2018-04-02T08:52:01.195Z,78.85
2018-04-02T08:53:01.622Z,80.52
2018-04-02T08:54:02.089Z,84.69
2018-04-02T08:55:02.496Z,81.44
2018-04-02T08:56:02.945Z,75.72
2018-04-02T08:57:03.361Z,75.05
2018-04-02T08:58:03.799Z,75.24
2018-04-02T08:59:04.229Z,73.81
2018-04-02T09:00:04.664Z,71.91
2018-04-02T09:01:05.104Z,73.22
2018-04-02T09:02:05.532Z,70.48
2018-04-02T09:03:05.980Z,67.55
2018-04-02T09:04:06.408Z,65.48
2018-04-02T09:05:06.841Z,66.19
2018-04-02T09:06:07.284Z,62.87
2018-04-02T09:07:07.767Z,63.73
2018-04-02T09:08:08.155Z,63.29
2018-04-02T09:09:08.640Z,66.25
2018-04-02T09:10:09.038Z,63.19
2018-04-02T09:11:09.470Z,61.85
2018-04-02T09:12:09.913Z,63.64
2018-04-02T09:13:10.346Z,63.83
2018-04-02T09:14:10.791Z,61.60
2018-04-02T09:15:11.226Z,57.53
2018-04-02T09:16:11.672Z,63.19
2018-04-02T09:17:12.104Z,59.27
2018-04-02T09:18:12.568Z,62.24
2018-04-02T09:19:13.018Z,63.42
2018-04-02T09:20:13.440Z,56.52
2018-04-02T09:21:13.882Z,56.96
2018-04-02T09:22:14.337Z,53.53
2018-04-02T09:23:14.763Z,52.95
2018-04-02T09:24:15.210Z,52.07
2018-04-02T09:25:15.649Z,51.91
2018-04-02T09:26:16.087Z,58.90
2018-04-02T09:27:16.528Z,60.30
2018-04-02T09:28:16.971Z,59.88
2018-04-02T09:29:17.416Z,56.88
2018-04-02T09:30:17.852Z,58.03
2018-04-02T09:31:18.295Z,58.03
2018-04-02T09:32:18.743Z,57.78
2018-04-02T09:33:19.180Z,60.42
2018-04-02T09:34:19.611Z,62.43
2018-04-02T09:35:20.058Z,63.16
2018-04-02T09:36:20.494Z,59.66
2018-04-02T09:37:20.939Z,58.06
2018-04-02T09:38:21.373Z,60.58
2018-04-02T09:39:21.812Z,65.42
2018-04-02T09:40:22.247Z,65.77
2018-04-02T09:41:22.688Z,69.04
2018-04-02T09:42:23.129Z,69.29
2018-04-02T09:43:23.591Z,72.17
2018-04-02T09:44:24.011Z,70.94
2018-04-02T09:45:24.463Z,71.28
2018-04-02T09:46:24.896Z,73.00
2018-04-02T09:47:25.335Z,75.01
2018-04-02T09:48:25.790Z,68.78
2018-04-02T09:49:26.216Z,68.98
2018-04-02T09:50:26.655Z,65.26
2018-04-02T09:51:27.099Z,60.86
2018-04-02T09:52:27.532Z,55.51
2018-04-02T09:53:27.986Z,54.91
2018-04-02T09:54:28.428Z,51.63
2018-04-02T09:55:28.864Z,51.70
2018-04-02T09:56:29.313Z,53.11
2018-04-02T09:57:29.757Z,54.72
2018-04-02T09:58:30.200Z,49.07
2018-04-02T09:59:30.685Z,52.07
2018-04-02T10:00:31.093Z,58.97
2018-04-02T10:01:31.547Z,57.31
2018-04-02T10:02:31.989Z,55.69
2018-04-02T10:03:32.424Z,51.34
2018-04-02T10:04:32.899Z,53.72
2018-04-02T10:05:33.318Z,56.93
2018-04-02T10:06:33.768Z,56.23
2018-04-02T10:07:34.208Z,58.17
2018-04-02T10:08:34.668Z,59.19
2018-04-02T10:09:35.106Z,57.92
2018-04-02T10:10:35.614Z,58.11
2018-04-02T10:11:36.010Z,57.92
2018-04-02T10:12:36.451Z,55.36
2018-04-02T10:13:36.906Z,53.24
2018-04-02T10:14:37.344Z,54.90
2018-04-02T10:15:37.864Z,57.26
2018-04-02T10:16:38.245Z,58.26
2018-04-02T10:17:38.682Z,55.21
2018-04-02T10:18:39.131Z,54.48
2018-04-02T10:19:39.577Z,55.60
2018-04-02T10:20:40.028Z,55.20
2018-04-02T10:21:40.477Z,54.94
2018-04-02T10:22:40.926Z,52.75
2018-04-02T10:23:41.372Z,47.08
2018-04-02T10:24:41.817Z,46.30
2018-04-02T10:25:42.270Z,46.89
2018-04-02T10:26:42.710Z,50.52
2018-04-02T10:27:43.166Z,49.74
2018-04-02T10:28:43.613Z,47.56
2018-04-02T10:29:44.101Z,46.72
2018-04-02T10:30:44.524Z,46.63
2018-04-02T10:31:44.949Z,49.37
2018-04-02T10:32:45.401Z,53.16
2018-04-02T10:33:45.838Z,54.32
2018-04-02T10:34:46.287Z,50.14
2018-04-02T10:35:46.740Z,50.26
2018-04-02T10:36:47.175Z,48.78
2018-04-02T10:37:47.622Z,46.46
2018-04-02T10:38:48.072Z,48.09
2018-04-02T10:39:48.528Z,46.70
2018-04-02T10:40:48.962Z,48.90
2018-04-02T10:41:49.409Z,47.82
2018-04-02T10:42:49.850Z,43.65
2018-04-02T10:43:50.329Z,41.63
2018-04-02T10:44:50.765Z,41.94
2018-04-02T10:45:51.194Z,39.98
2018-04-02T10:46:51.683Z,42.87
2018-04-02T10:49:25.816Z,47.34
2018-04-02T10:51:59.365Z,50.91
2018-04-02T10:52:59.811Z,45.59
2018-04-02T10:54:54.405Z,44.11
2018-04-02T10:55:54.839Z,41.75
2018-04-02T10:57:49.469Z,39.92
2018-04-02T10:58:49.881Z,42.51
2018-04-02T11:00:45.452Z,41.39
2018-04-02T11:01:45.901Z,38.96
2018-04-02T11:03:40.493Z,42.55
2018-04-02T11:04:40.933Z,41.63
2018-04-02T11:06:35.525Z,40.42
2018-04-02T11:07:35.969Z,42.53
2018-04-02T11:09:30.576Z,41.78
2018-04-02T11:10:31.012Z,41.66
2018-04-02T11:12:25.634Z,39.94
2018-04-02T11:13:26.050Z,40.92
2018-04-02T11:15:20.646Z,41.15
2018-04-02T11:16:21.093Z,41.77
2018-04-02T11:18:16.662Z,40.61
2018-04-02T11:19:17.112Z,43.09
2018-04-02T11:21:11.716Z,44.05
2018-04-02T11:22:12.154Z,44.74
2018-04-02T11:24:07.730Z,47.63
2018-04-02T11:25:08.171Z,46.51
2018-04-02T11:27:02.779Z,40.52
2018-04-02T11:28:03.209Z,39.37
2018-04-02T11:29:57.798Z,39.72
2018-04-02T11:30:58.254Z,38.16
2018-04-02T11:32:52.838Z,38.34
2018-04-02T11:33:53.292Z,38.32
2018-04-02T11:35:47.893Z,39.69
2018-04-02T11:36:48.333Z,41.41
2018-04-02T11:38:43.893Z,42.57
2018-04-02T11:39:44.340Z,44.00
2018-04-02T11:41:38.940Z,39.98
2018-04-02T11:42:39.379Z,38.37
2018-04-02T11:44:33.976Z,39.31
2018-04-02T11:45:34.433Z,41.70
2018-04-02T11:47:30.000Z,42.97
2018-04-02T11:48:30.449Z,44.79
2018-04-02T11:50:26.007Z,46.68
2018-04-02T11:51:26.450Z,46.22
2018-04-02T11:53:22.010Z,46.94
2018-04-02T11:54:22.452Z,49.82
2018-04-02T11:56:18.022Z,53.32
2018-04-02T11:57:18.456Z,53.54
2018-04-02T11:59:13.020Z,53.32
2018-04-02T12:00:13.455Z,54.18
2018-04-02T12:02:08.036Z,55.32
2018-04-02T12:03:08.462Z,54.37
2018-04-02T12:05:03.035Z,55.04
2018-04-02T12:06:03.469Z,54.11
2018-04-02T12:07:58.037Z,55.10
2018-04-02T12:08:58.469Z,56.72
2018-04-02T12:10:53.035Z,58.79
2018-04-02T12:11:53.456Z,58.06
2018-04-02T12:13:48.033Z,56.15
2018-04-02T12:14:48.508Z,56.24
2018-04-02T12:16:43.017Z,56.72
2018-04-02T12:17:43.432Z,57.55
2018-04-02T12:19:37.975Z,57.93
2018-04-02T12:20:38.452Z,58.50
2018-04-02T12:22:32.953Z,59.01
2018-04-02T12:23:33.388Z,58.25
2018-04-02T12:25:27.931Z,59.17
2018-04-02T12:26:28.360Z,59.07
2018-04-02T12:28:22.943Z,59.39
2018-04-02T12:29:23.380Z,58.44
2018-04-02T12:31:17.918Z,57.39
2018-04-02T12:32:18.363Z,58.03
2018-04-02T12:34:12.950Z,58.62
2018-04-02T12:35:13.332Z,59.20
2018-04-02T12:37:07.913Z,58.72
2018-04-02T12:38:08.278Z,58.53
2018-04-02T12:40:02.823Z,58.25
2018-04-02T12:41:03.265Z,57.67
2018-04-02T12:42:57.799Z,58.34
2018-04-02T12:43:58.243Z,58.79
2018-04-02T12:45:52.783Z,59.20
2018-04-02T12:46:53.217Z,59.17
2018-04-02T12:48:48.786Z,60.21
2018-04-02T12:49:49.164Z,59.74
2018-04-02T12:51:44.679Z,59.29
2018-04-02T12:52:45.124Z,58.62
2018-04-02T12:54:39.683Z,59.20
2018-04-02T12:55:40.116Z,59.67
2018-04-02T12:56:40.556Z,59.23
2018-04-02T12:57:40.978Z,57.87
2018-04-02T12:58:41.374Z,57.80
2018-04-02T12:59:41.828Z,57.80
2018-04-02T13:00:42.239Z,57.80
2018-04-02T13:01:42.675Z,57.70
2018-04-02T13:02:43.197Z,58.18
2018-04-02T13:03:43.522Z,57.42
2018-04-02T13:04:44.021Z,57.42
2018-04-02T13:05:44.375Z,56.94
2018-04-02T13:06:44.816Z,56.65
2018-04-02T13:07:45.224Z,57.51
2018-04-02T13:08:45.677Z,57.23
2018-04-02T13:09:46.119Z,57.70
2018-04-02T13:10:46.553Z,57.29
2018-04-02T13:11:46.926Z,57.87
2018-04-02T13:12:47.354Z,58.08
2018-04-02T13:13:47.780Z,57.42
2018-04-02T13:14:48.208Z,57.80
2018-04-02T13:15:48.630Z,57.80
2018-04-02T13:16:49.061Z,57.89
2018-04-02T13:17:49.483Z,56.85
2018-04-02T13:18:49.919Z,56.75
2018-04-02T13:19:50.346Z,58.18
2018-04-02T13:20:50.765Z,58.18
2018-04-02T13:21:51.200Z,57.60
2018-04-02T13:22:51.624Z,58.08
2018-04-02T13:23:52.050Z,57.99
2018-04-02T13:24:52.474Z,57.70
2018-04-02T13:25:52.909Z,57.51
2018-04-02T13:26:53.338Z,56.46
2018-04-02T13:27:53.758Z,56.65
2018-04-02T13:28:54.198Z,57.07
2018-04-02T13:29:54.621Z,56.27
2018-04-02T13:30:55.044Z,56.85
2018-04-02T13:31:55.471Z,56.56
2018-04-02T13:32:55.893Z,56.75
2018-04-02T13:33:56.327Z,56.94
2018-04-02T13:34:56.754Z,57.60
2018-04-02T13:35:57.179Z,57.54
2018-04-02T13:36:57.605Z,56.97
2018-04-02T13:37:58.033Z,56.94
2018-04-02T13:38:58.465Z,57.23